sensor_id;sensor_type;location;lat;lon;timestamp;pressure;altitude;pressure_sealevel;temperature;humidity
46534;BME280;32260;52.008;4.752;2023-01-01T00:01:14;100697.34;;;16.53;51.97
46534;BME280;32260;52.008;4.752;2023-01-01T00:03:41;100696.25;;;16.57;52.15
46534;BME280;32260;52.008;4.752;2023-01-01T00:06:11;100707.44;;;16.46;52.17
46534;BME280;32260;52.008;4.752;2023-01-01T00:08:38;100694.03;;;16.47;52.11
46534;BME280;32260;52.008;4.752;2023-01-01T00:11:06;100688.16;;;16.39;52.12
46534;BME280;32260;52.008;4.752;2023-01-01T00:13:34;100686.56;;;16.35;52.51
46534;BME280;32260;52.008;4.752;2023-01-01T00:16:05;100685.19;;;16.45;52.07
46534;BME280;32260;52.008;4.752;2023-01-01T00:18:31;100690.84;;;16.39;52.70
46534;BME280;32260;52.008;4.752;2023-01-01T00:21:02;100709.91;;;16.31;52.72
46534;BME280;32260;52.008;4.752;2023-01-01T00:23:29;100701.66;;;16.36;52.53
46534;BME280;32260;52.008;4.752;2023-01-01T00:25:55;100709.41;;;16.42;52.81
46534;BME280;32260;52.008;4.752;2023-01-01T00:28:21;100698.22;;;16.34;53.05
46534;BME280;32260;52.008;4.752;2023-01-01T00:30:47;100692.41;;;16.24;53.04
46534;BME280;32260;52.008;4.752;2023-01-01T00:33:13;100707.16;;;16.33;52.81
46534;BME280;32260;52.008;4.752;2023-01-01T00:35:39;100702.91;;;16.29;52.63
46534;BME280;32260;52.008;4.752;2023-01-01T00:38:06;100690.19;;;16.34;52.86
46534;BME280;32260;52.008;4.752;2023-01-01T00:40:32;100694.16;;;16.44;52.53
46534;BME280;32260;52.008;4.752;2023-01-01T00:42:58;100685.50;;;16.39;52.50
46534;BME280;32260;52.008;4.752;2023-01-01T00:45:26;100704.03;;;16.42;52.51
46534;BME280;32260;52.008;4.752;2023-01-01T00:47:53;100707.00;;;16.36;52.42
46534;BME280;32260;52.008;4.752;2023-01-01T00:50:21;100701.66;;;16.36;52.54
46534;BME280;32260;52.008;4.752;2023-01-01T00:52:47;100700.22;;;16.29;52.52
46534;BME280;32260;52.008;4.752;2023-01-01T00:55:14;100695.44;;;16.36;52.21
46534;BME280;32260;52.008;4.752;2023-01-01T00:57:40;100702.25;;;16.43;52.34
46534;BME280;32260;52.008;4.752;2023-01-01T01:00:07;100687.91;;;16.25;52.81
46534;BME280;32260;52.008;4.752;2023-01-01T01:02:34;100680.06;;;16.41;52.27
46534;BME280;32260;52.008;4.752;2023-01-01T01:05:00;100718.22;;;16.44;51.99
46534;BME280;32260;52.008;4.752;2023-01-01T01:07:32;100720.38;;;16.36;52.62
46534;BME280;32260;52.008;4.752;2023-01-01T01:09:58;100705.41;;;16.32;52.52
46534;BME280;32260;52.008;4.752;2023-01-01T01:12:24;100704.13;;;16.41;52.44
46534;BME280;32260;52.008;4.752;2023-01-01T01:14:50;100729.13;;;16.40;52.26
46534;BME280;32260;52.008;4.752;2023-01-01T01:17:16;100718.44;;;16.40;52.53
46534;BME280;32260;52.008;4.752;2023-01-01T01:19:42;100717.84;;;16.33;52.73
46534;BME280;32260;52.008;4.752;2023-01-01T01:22:08;100726.97;;;16.29;52.48
46534;BME280;32260;52.008;4.752;2023-01-01T01:24:34;100733.91;;;16.33;52.58
46534;BME280;32260;52.008;4.752;2023-01-01T01:27:00;100757.78;;;16.17;52.96
46534;BME280;32260;52.008;4.752;2023-01-01T01:29:27;100743.13;;;16.26;52.73
46534;BME280;32260;52.008;4.752;2023-01-01T01:31:53;100746.97;;;16.39;53.05
46534;BME280;32260;52.008;4.752;2023-01-01T01:34:19;100739.97;;;16.37;52.79
46534;BME280;32260;52.008;4.752;2023-01-01T01:36:45;100728.72;;;16.30;52.89
46534;BME280;32260;52.008;4.752;2023-01-01T01:39:11;100745.59;;;16.30;52.98
46534;BME280;32260;52.008;4.752;2023-01-01T01:41:37;100743.78;;;16.31;52.88
46534;BME280;32260;52.008;4.752;2023-01-01T01:44:46;100740.25;;;16.30;52.95
46534;BME280;32260;52.008;4.752;2023-01-01T01:46:53;100745.03;;;16.24;52.80
46534;BME280;32260;52.008;4.752;2023-01-01T01:49:28;100750.38;;;16.24;53.17
46534;BME280;32260;52.008;4.752;2023-01-01T01:51:56;100753.91;;;16.24;52.55
46534;BME280;32260;52.008;4.752;2023-01-01T01:54:27;100759.44;;;16.20;52.91
46534;BME280;32260;52.008;4.752;2023-01-01T01:56:59;100755.84;;;16.21;52.59
46534;BME280;32260;52.008;4.752;2023-01-01T01:59:29;100772.88;;;16.18;52.70
46534;BME280;32260;52.008;4.752;2023-01-01T02:01:57;100766.06;;;16.11;52.89
46534;BME280;32260;52.008;4.752;2023-01-01T02:04:23;100775.91;;;16.10;53.06
46534;BME280;32260;52.008;4.752;2023-01-01T02:06:50;100779.94;;;16.00;52.83
46534;BME280;32260;52.008;4.752;2023-01-01T02:09:17;100779.50;;;16.09;52.76
46534;BME280;32260;52.008;4.752;2023-01-01T02:11:43;100782.38;;;16.05;52.70
46534;BME280;32260;52.008;4.752;2023-01-01T02:14:10;100772.69;;;16.02;52.44
46534;BME280;32260;52.008;4.752;2023-01-01T02:19:45;100778.56;;;16.10;52.55
46534;BME280;32260;52.008;4.752;2023-01-01T02:28:14;100786.44;;;16.13;52.55
46534;BME280;32260;52.008;4.752;2023-01-01T02:30:45;100773.44;;;16.06;52.50
46534;BME280;32260;52.008;4.752;2023-01-01T02:33:18;100791.47;;;16.00;52.64
46534;BME280;32260;52.008;4.752;2023-01-01T02:35:51;100795.97;;;16.00;52.50
46534;BME280;32260;52.008;4.752;2023-01-01T02:41:07;100788.31;;;15.91;52.79
46534;BME280;32260;52.008;4.752;2023-01-01T02:43:36;100784.06;;;15.87;53.06
46534;BME280;32260;52.008;4.752;2023-01-01T02:46:08;100783.66;;;15.96;52.97
46534;BME280;32260;52.008;4.752;2023-01-01T02:48:51;100789.00;;;15.96;52.90
46534;BME280;32260;52.008;4.752;2023-01-01T02:54:06;100787.78;;;15.82;53.16
46534;BME280;32260;52.008;4.752;2023-01-01T02:56:39;100798.19;;;15.89;53.33
46534;BME280;32260;52.008;4.752;2023-01-01T02:59:30;100797.94;;;15.95;53.13
46534;BME280;32260;52.008;4.752;2023-01-01T03:05:48;100803.53;;;15.89;53.65
46534;BME280;32260;52.008;4.752;2023-01-01T03:14:37;100817.97;;;15.84;53.51
46534;BME280;32260;52.008;4.752;2023-01-01T03:19:49;100839.50;;;15.80;53.73
46534;BME280;32260;52.008;4.752;2023-01-01T03:22:17;100854.28;;;15.90;53.74
46534;BME280;32260;52.008;4.752;2023-01-01T03:27:33;100878.72;;;15.79;56.59
46534;BME280;32260;52.008;4.752;2023-01-01T03:30:04;100888.41;;;15.60;58.42
46534;BME280;32260;52.008;4.752;2023-01-01T03:32:34;100882.94;;;15.41;58.73
46534;BME280;32260;52.008;4.752;2023-01-01T03:35:24;100871.31;;;14.96;61.00
46534;BME280;32260;52.008;4.752;2023-01-01T03:37:53;100886.03;;;14.82;61.32
46534;BME280;32260;52.008;4.752;2023-01-01T03:40:21;100902.81;;;14.61;62.09
46534;BME280;32260;52.008;4.752;2023-01-01T03:42:51;100871.94;;;14.53;61.90
46534;BME280;32260;52.008;4.752;2023-01-01T03:47:55;100902.63;;;14.67;60.58
46534;BME280;32260;52.008;4.752;2023-01-01T03:50:26;100917.72;;;14.66;60.81
46534;BME280;32260;52.008;4.752;2023-01-01T03:53:02;100926.41;;;14.73;60.82
46534;BME280;32260;52.008;4.752;2023-01-01T03:55:56;100906.63;;;14.79;60.27
46534;BME280;32260;52.008;4.752;2023-01-01T04:01:26;100901.97;;;14.84;59.98
46534;BME280;32260;52.008;4.752;2023-01-01T04:03:55;100912.94;;;14.76;59.92
46534;BME280;32260;52.008;4.752;2023-01-01T04:06:22;100908.28;;;14.83;60.09
46534;BME280;32260;52.008;4.752;2023-01-01T04:08:49;100917.28;;;14.79;59.97
46534;BME280;32260;52.008;4.752;2023-01-01T04:11:20;100902.63;;;14.67;60.71
46534;BME280;32260;52.008;4.752;2023-01-01T04:14:07;100915.72;;;14.73;61.27
46534;BME280;32260;52.008;4.752;2023-01-01T04:16:33;100930.19;;;14.66;62.19
46534;BME280;32260;52.008;4.752;2023-01-01T04:18:59;100907.94;;;14.67;62.41
46534;BME280;32260;52.008;4.752;2023-01-01T04:21:26;100922.38;;;14.60;62.57
46534;BME280;32260;52.008;4.752;2023-01-01T04:23:52;100930.31;;;14.61;62.69
46534;BME280;32260;52.008;4.752;2023-01-01T04:26:18;100933.78;;;14.65;62.98
46534;BME280;32260;52.008;4.752;2023-01-01T04:28:44;100936.56;;;14.62;63.03
46534;BME280;32260;52.008;4.752;2023-01-01T04:31:10;100942.34;;;14.48;63.83
46534;BME280;32260;52.008;4.752;2023-01-01T04:33:37;100950.94;;;14.56;63.40
46534;BME280;32260;52.008;4.752;2023-01-01T04:36:04;100962.66;;;14.52;63.37
46534;BME280;32260;52.008;4.752;2023-01-01T04:38:32;100960.00;;;14.52;63.37
46534;BME280;32260;52.008;4.752;2023-01-01T04:41:00;100987.44;;;14.54;62.69
46534;BME280;32260;52.008;4.752;2023-01-01T04:43:26;100972.63;;;14.47;62.25
46534;BME280;32260;52.008;4.752;2023-01-01T04:45:57;100988.44;;;14.51;62.09
46534;BME280;32260;52.008;4.752;2023-01-01T04:48:24;100981.34;;;14.50;61.76
46534;BME280;32260;52.008;4.752;2023-01-01T04:50:59;100983.44;;;14.42;62.38
46534;BME280;32260;52.008;4.752;2023-01-01T04:53:29;100991.16;;;14.50;61.85
46534;BME280;32260;52.008;4.752;2023-01-01T04:55:55;100996.59;;;14.47;61.82
46534;BME280;32260;52.008;4.752;2023-01-01T04:58:21;100988.56;;;14.48;61.43
46534;BME280;32260;52.008;4.752;2023-01-01T05:00:50;100993.38;;;14.37;61.37
46534;BME280;32260;52.008;4.752;2023-01-01T05:03:17;101005.72;;;14.39;60.88
46534;BME280;32260;52.008;4.752;2023-01-01T05:05:43;101000.75;;;14.29;60.83
46534;BME280;32260;52.008;4.752;2023-01-01T05:08:09;101001.56;;;14.31;60.02
46534;BME280;32260;52.008;4.752;2023-01-01T05:10:35;101001.78;;;14.24;59.33
46534;BME280;32260;52.008;4.752;2023-01-01T05:13:06;101017.16;;;14.43;58.37
46534;BME280;32260;52.008;4.752;2023-01-01T05:15:35;101023.47;;;14.40;58.27
46534;BME280;32260;52.008;4.752;2023-01-01T05:18:01;101005.56;;;14.44;58.10
46534;BME280;32260;52.008;4.752;2023-01-01T05:20:28;101004.59;;;14.47;58.01
46534;BME280;32260;52.008;4.752;2023-01-01T05:22:54;101019.00;;;14.41;58.22
46534;BME280;32260;52.008;4.752;2023-01-01T05:25:20;101031.41;;;14.42;58.08
46534;BME280;32260;52.008;4.752;2023-01-01T05:27:46;101045.66;;;14.41;58.11
46534;BME280;32260;52.008;4.752;2023-01-01T05:30:12;101031.50;;;14.39;58.54
46534;BME280;32260;52.008;4.752;2023-01-01T05:32:38;101043.25;;;14.33;58.55
46534;BME280;32260;52.008;4.752;2023-01-01T05:35:04;101058.34;;;14.33;58.54
46534;BME280;32260;52.008;4.752;2023-01-01T05:37:30;101043.31;;;14.32;58.35
46534;BME280;32260;52.008;4.752;2023-01-01T05:39:57;101045.06;;;14.31;58.54
46534;BME280;32260;52.008;4.752;2023-01-01T05:42:23;101049.78;;;14.23;58.70
46534;BME280;32260;52.008;4.752;2023-01-01T05:44:49;101052.50;;;14.21;58.76
46534;BME280;32260;52.008;4.752;2023-01-01T05:47:15;101071.34;;;14.15;58.89
46534;BME280;32260;52.008;4.752;2023-01-01T05:49:43;101078.94;;;14.28;58.49
46534;BME280;32260;52.008;4.752;2023-01-01T05:52:09;101070.16;;;14.26;57.91
46534;BME280;32260;52.008;4.752;2023-01-01T05:54:35;101078.03;;;14.29;58.25
46534;BME280;32260;52.008;4.752;2023-01-01T05:57:01;101081.81;;;14.21;58.34
46534;BME280;32260;52.008;4.752;2023-01-01T05:59:27;101092.56;;;14.18;58.26
46534;BME280;32260;52.008;4.752;2023-01-01T06:01:53;101080.69;;;14.29;57.97
46534;BME280;32260;52.008;4.752;2023-01-01T06:04:22;101092.22;;;14.29;57.81
46534;BME280;32260;52.008;4.752;2023-01-01T06:06:48;101092.66;;;14.15;57.98
46534;BME280;32260;52.008;4.752;2023-01-01T06:09:14;101087.13;;;14.21;57.71
46534;BME280;32260;52.008;4.752;2023-01-01T06:11:40;101097.06;;;14.16;57.46
46534;BME280;32260;52.008;4.752;2023-01-01T06:14:06;101097.91;;;14.18;57.69
46534;BME280;32260;52.008;4.752;2023-01-01T06:16:33;101112.00;;;14.22;57.13
46534;BME280;32260;52.008;4.752;2023-01-01T06:19:02;101110.94;;;14.28;57.29
46534;BME280;32260;52.008;4.752;2023-01-01T06:21:29;101113.72;;;14.24;57.57
46534;BME280;32260;52.008;4.752;2023-01-01T06:23:56;101121.84;;;14.20;57.35
46534;BME280;32260;52.008;4.752;2023-01-01T06:26:26;101131.72;;;14.16;57.63
46534;BME280;32260;52.008;4.752;2023-01-01T06:28:54;101131.06;;;14.08;57.92
46534;BME280;32260;52.008;4.752;2023-01-01T06:31:21;101130.16;;;14.09;58.25
46534;BME280;32260;52.008;4.752;2023-01-01T06:33:48;101125.72;;;14.10;57.99
46534;BME280;32260;52.008;4.752;2023-01-01T06:36:17;101130.06;;;14.12;57.47
46534;BME280;32260;52.008;4.752;2023-01-01T06:38:45;101137.16;;;14.13;57.80
46534;BME280;32260;52.008;4.752;2023-01-01T06:41:14;101132.81;;;14.09;57.63
46534;BME280;32260;52.008;4.752;2023-01-01T06:43:41;101141.28;;;13.94;57.23
46534;BME280;32260;52.008;4.752;2023-01-01T06:46:25;101144.59;;;14.02;57.28
46534;BME280;32260;52.008;4.752;2023-01-01T06:48:57;101137.69;;;13.95;57.23
46534;BME280;32260;52.008;4.752;2023-01-01T06:51:25;101142.00;;;13.99;57.08
46534;BME280;32260;52.008;4.752;2023-01-01T06:53:52;101146.66;;;13.90;56.96
46534;BME280;32260;52.008;4.752;2023-01-01T06:56:19;101171.72;;;13.85;57.48
46534;BME280;32260;52.008;4.752;2023-01-01T06:58:45;101172.63;;;13.84;57.66
46534;BME280;32260;52.008;4.752;2023-01-01T07:01:15;101186.59;;;13.92;57.26
46534;BME280;32260;52.008;4.752;2023-01-01T07:03:42;101184.00;;;13.89;57.22
46534;BME280;32260;52.008;4.752;2023-01-01T07:06:09;101192.09;;;13.86;57.57
46534;BME280;32260;52.008;4.752;2023-01-01T07:08:36;101203.09;;;13.73;57.68
46534;BME280;32260;52.008;4.752;2023-01-01T07:11:02;101199.47;;;13.76;57.53
46534;BME280;32260;52.008;4.752;2023-01-01T07:13:29;101213.66;;;13.77;57.69
46534;BME280;32260;52.008;4.752;2023-01-01T07:15:56;101212.84;;;13.73;58.00
46534;BME280;32260;52.008;4.752;2023-01-01T07:18:23;101207.69;;;13.67;57.81
46534;BME280;32260;52.008;4.752;2023-01-01T07:20:54;101210.47;;;13.64;58.18
46534;BME280;32260;52.008;4.752;2023-01-01T07:23:21;101232.75;;;13.59;58.22
46534;BME280;32260;52.008;4.752;2023-01-01T07:25:49;101228.34;;;13.58;58.03
46534;BME280;32260;52.008;4.752;2023-01-01T07:28:16;101247.97;;;13.54;58.30
46534;BME280;32260;52.008;4.752;2023-01-01T07:30:42;101252.31;;;13.57;58.04
46534;BME280;32260;52.008;4.752;2023-01-01T07:33:11;101263.19;;;13.49;58.42
46534;BME280;32260;52.008;4.752;2023-01-01T07:35:38;101257.19;;;13.41;58.63
46534;BME280;32260;52.008;4.752;2023-01-01T07:38:05;101259.91;;;13.38;58.80
46534;BME280;32260;52.008;4.752;2023-01-01T07:40:31;101263.50;;;13.35;58.48
46534;BME280;32260;52.008;4.752;2023-01-01T07:42:57;101285.69;;;13.36;59.15
46534;BME280;32260;52.008;4.752;2023-01-01T07:45:24;101285.94;;;13.25;58.98
46534;BME280;32260;52.008;4.752;2023-01-01T07:47:53;101302.09;;;13.17;59.39
46534;BME280;32260;52.008;4.752;2023-01-01T07:50:20;101295.81;;;13.20;59.68
46534;BME280;32260;52.008;4.752;2023-01-01T07:52:47;101310.06;;;13.17;59.51
46534;BME280;32260;52.008;4.752;2023-01-01T07:55:15;101299.47;;;13.14;59.60
46534;BME280;32260;52.008;4.752;2023-01-01T07:57:42;101314.69;;;13.09;59.73
46534;BME280;32260;52.008;4.752;2023-01-01T08:00:10;101312.06;;;13.06;59.54
46534;BME280;32260;52.008;4.752;2023-01-01T08:02:37;101334.47;;;12.95;60.18
46534;BME280;32260;52.008;4.752;2023-01-01T08:05:04;101326.50;;;12.95;60.05
46534;BME280;32260;52.008;4.752;2023-01-01T08:07:30;101326.38;;;13.02;59.56
46534;BME280;32260;52.008;4.752;2023-01-01T08:09:57;101329.91;;;13.02;60.00
46534;BME280;32260;52.008;4.752;2023-01-01T08:12:23;101347.59;;;13.05;59.56
46534;BME280;32260;52.008;4.752;2023-01-01T08:14:49;101337.91;;;13.01;59.88
46534;BME280;32260;52.008;4.752;2023-01-01T08:17:15;101330.97;;;12.95;59.95
46534;BME280;32260;52.008;4.752;2023-01-01T08:19:41;101326.47;;;12.97;60.02
46534;BME280;32260;52.008;4.752;2023-01-01T08:22:09;101340.63;;;12.99;59.67
46534;BME280;32260;52.008;4.752;2023-01-01T08:24:35;101342.41;;;12.97;59.72
46534;BME280;32260;52.008;4.752;2023-01-01T08:27:01;101342.38;;;13.00;60.22
46534;BME280;32260;52.008;4.752;2023-01-01T08:29:28;101336.16;;;13.01;59.64
46534;BME280;32260;52.008;4.752;2023-01-01T08:31:54;101337.91;;;13.01;59.61
46534;BME280;32260;52.008;4.752;2023-01-01T08:34:20;101336.09;;;13.03;59.68
46534;BME280;32260;52.008;4.752;2023-01-01T08:36:46;101339.66;;;13.02;59.74
46534;BME280;32260;52.008;4.752;2023-01-01T08:39:12;101338.84;;;13.00;59.76
46534;BME280;32260;52.008;4.752;2023-01-01T08:41:38;101347.78;;;12.95;59.70
46534;BME280;32260;52.008;4.752;2023-01-01T08:44:04;101347.69;;;13.00;60.34
46534;BME280;32260;52.008;4.752;2023-01-01T08:46:30;101343.22;;;13.01;60.15
46534;BME280;32260;52.008;4.752;2023-01-01T08:48:56;101365.44;;;12.98;59.93
46534;BME280;32260;52.008;4.752;2023-01-01T08:51:22;101362.59;;;13.07;60.03
46534;BME280;32260;52.008;4.752;2023-01-01T08:53:48;101360.78;;;13.09;60.14
46534;BME280;32260;52.008;4.752;2023-01-01T08:56:14;101363.47;;;13.08;60.20
46534;BME280;32260;52.008;4.752;2023-01-01T08:58:41;101358.97;;;13.11;60.38
46534;BME280;32260;52.008;4.752;2023-01-01T09:01:09;101369.56;;;13.13;59.97
46534;BME280;32260;52.008;4.752;2023-01-01T09:03:35;101366.00;;;13.14;60.68
46534;BME280;32260;52.008;4.752;2023-01-01T09:06:02;101380.19;;;13.13;60.53
46534;BME280;32260;52.008;4.752;2023-01-01T09:08:28;101376.59;;;13.17;60.34
46534;BME280;32260;52.008;4.752;2023-01-01T09:10:58;101380.06;;;13.19;60.34
46534;BME280;32260;52.008;4.752;2023-01-01T09:13:25;101381.06;;;13.15;60.41
46534;BME280;32260;52.008;4.752;2023-01-01T09:15:51;101382.88;;;13.13;60.98
46534;BME280;32260;52.008;4.752;2023-01-01T09:18:17;101380.91;;;13.21;60.84
46534;BME280;32260;52.008;4.752;2023-01-01T09:20:44;101390.75;;;13.18;60.88
46534;BME280;32260;52.008;4.752;2023-01-01T09:23:10;101388.09;;;13.18;60.43
46534;BME280;32260;52.008;4.752;2023-01-01T09:25:37;101387.19;;;13.19;60.76
46534;BME280;32260;52.008;4.752;2023-01-01T09:28:06;101380.66;;;13.34;60.58
46534;BME280;32260;52.008;4.752;2023-01-01T09:30:33;101385.81;;;13.41;59.74
46534;BME280;32260;52.008;4.752;2023-01-01T09:33:00;101392.00;;;13.42;60.59
46534;BME280;32260;52.008;4.752;2023-01-01T09:35:26;101382.16;;;13.47;60.16
46534;BME280;32260;52.008;4.752;2023-01-01T09:37:53;101382.16;;;13.47;60.35
46534;BME280;32260;52.008;4.752;2023-01-01T09:40:31;101389.06;;;13.54;59.99
46534;BME280;32260;52.008;4.752;2023-01-01T09:43:26;101393.28;;;13.63;60.06
46534;BME280;32260;52.008;4.752;2023-01-01T09:46:05;101405.69;;;13.66;60.24
46534;BME280;32260;52.008;4.752;2023-01-01T09:48:34;101405.84;;;13.58;60.18
46534;BME280;32260;52.008;4.752;2023-01-01T09:51:04;101411.06;;;13.63;60.04
46534;BME280;32260;52.008;4.752;2023-01-01T09:56:23;101417.91;;;13.74;60.12
46534;BME280;32260;52.008;4.752;2023-01-01T09:58:50;101419.00;;;13.66;60.76
46534;BME280;32260;52.008;4.752;2023-01-01T10:01:40;101429.41;;;13.75;60.90
46534;BME280;32260;52.008;4.752;2023-01-01T10:07:44;101438.25;;;13.77;61.54
46534;BME280;32260;52.008;4.752;2023-01-01T10:10:27;101431.22;;;13.73;61.72
46534;BME280;32260;52.008;4.752;2023-01-01T10:13:06;101418.75;;;13.75;62.42
46534;BME280;32260;52.008;4.752;2023-01-01T10:15:39;101411.72;;;13.72;62.63
46534;BME280;32260;52.008;4.752;2023-01-01T10:18:16;101410.91;;;13.69;62.56
46534;BME280;32260;52.008;4.752;2023-01-01T10:21:20;101413.53;;;13.70;62.64
46534;BME280;32260;52.008;4.752;2023-01-01T10:23:39;101405.41;;;13.77;62.34
46534;BME280;32260;52.008;4.752;2023-01-01T10:26:12;101399.16;;;13.78;62.83
46534;BME280;32260;52.008;4.752;2023-01-01T10:28:48;101401.78;;;13.81;62.15
46534;BME280;32260;52.008;4.752;2023-01-01T10:31:19;101399.97;;;13.81;62.57
46534;BME280;32260;52.008;4.752;2023-01-01T10:33:46;101376.69;;;13.89;62.43
46534;BME280;32260;52.008;4.752;2023-01-01T10:36:15;101379.97;;;13.99;62.54
46534;BME280;32260;52.008;4.752;2023-01-01T10:38:43;101395.03;;;14.02;62.73
46534;BME280;32260;52.008;4.752;2023-01-01T10:41:10;101413.59;;;14.05;62.45
46534;BME280;32260;52.008;4.752;2023-01-01T10:43:37;101429.63;;;14.03;62.38
46534;BME280;32260;52.008;4.752;2023-01-01T10:46:05;101420.47;;;14.14;62.39
46534;BME280;32260;52.008;4.752;2023-01-01T10:48:34;101421.47;;;14.10;62.84
46534;BME280;32260;52.008;4.752;2023-01-01T10:51:03;101423.81;;;14.22;62.35
46534;BME280;32260;52.008;4.752;2023-01-01T10:53:50;101438.53;;;14.37;62.23
46534;BME280;32260;52.008;4.752;2023-01-01T10:56:18;101442.28;;;14.30;62.60
46534;BME280;32260;52.008;4.752;2023-01-01T10:58:52;101456.34;;;14.35;62.30
46534;BME280;32260;52.008;4.752;2023-01-01T11:01:25;101452.03;;;14.29;62.50
46534;BME280;32260;52.008;4.752;2023-01-01T11:06:46;101452.69;;;14.39;62.45
46534;BME280;32260;52.008;4.752;2023-01-01T11:09:29;101451.63;;;14.46;62.53
46534;BME280;32260;52.008;4.752;2023-01-01T11:12:04;101450.78;;;14.44;62.41
46534;BME280;32260;52.008;4.752;2023-01-01T11:14:37;101460.84;;;14.33;62.47
46534;BME280;32260;52.008;4.752;2023-01-01T11:17:05;101449.38;;;14.31;62.72
46534;BME280;32260;52.008;4.752;2023-01-01T11:19:35;101453.00;;;14.27;62.78
46534;BME280;32260;52.008;4.752;2023-01-01T11:22:02;101453.84;;;14.29;62.73
46534;BME280;32260;52.008;4.752;2023-01-01T11:24:30;101456.50;;;14.29;62.83
46534;BME280;32260;52.008;4.752;2023-01-01T11:27:20;101452.88;;;14.31;62.95
46534;BME280;32260;52.008;4.752;2023-01-01T11:29:46;101452.03;;;14.31;63.16
46534;BME280;32260;52.008;4.752;2023-01-01T11:32:20;101438.59;;;14.34;63.04
46534;BME280;32260;52.008;4.752;2023-01-01T11:34:54;101436.84;;;14.33;63.19
46534;BME280;32260;52.008;4.752;2023-01-01T11:37:27;101437.69;;;14.35;63.31
46534;BME280;32260;52.008;4.752;2023-01-01T11:39:56;101442.19;;;14.33;63.52
46534;BME280;32260;52.008;4.752;2023-01-01T11:42:26;101444.66;;;14.40;63.72
46534;BME280;32260;52.008;4.752;2023-01-01T11:47:37;101446.41;;;14.42;63.53
46534;BME280;32260;52.008;4.752;2023-01-01T11:50:38;101451.56;;;14.48;63.58
46534;BME280;32260;52.008;4.752;2023-01-01T11:53:27;101462.38;;;14.42;63.90
46534;BME280;32260;52.008;4.752;2023-01-01T11:56:14;101467.72;;;14.42;63.92
46534;BME280;32260;52.008;4.752;2023-01-01T11:58:58;101453.41;;;14.46;63.68
46534;BME280;32260;52.008;4.752;2023-01-01T12:07:14;101470.13;;;14.52;63.22
46534;BME280;32260;52.008;4.752;2023-01-01T12:10:02;101447.13;;;14.48;62.70
46534;BME280;32260;52.008;4.752;2023-01-01T12:18:59;101466.31;;;14.61;62.02
46534;BME280;32260;52.008;4.752;2023-01-01T12:21:06;101460.16;;;14.59;61.50
46534;BME280;32260;52.008;4.752;2023-01-01T12:23:36;101463.81;;;14.55;61.51
46534;BME280;32260;52.008;4.752;2023-01-01T12:32:26;101452.91;;;14.66;61.54
46534;BME280;32260;52.008;4.752;2023-01-01T12:35:04;101446.50;;;14.71;61.44
46534;BME280;32260;52.008;4.752;2023-01-01T12:43:21;101450.88;;;14.76;61.35
46534;BME280;32260;52.008;4.752;2023-01-01T12:48:55;101458.72;;;14.80;60.88
46534;BME280;32260;52.008;4.752;2023-01-01T12:54:26;101460.81;;;14.69;60.59
46534;BME280;32260;52.008;4.752;2023-01-01T12:57:31;101462.69;;;14.65;60.34
46534;BME280;32260;52.008;4.752;2023-01-01T13:00:10;101471.63;;;14.63;60.23
46534;BME280;32260;52.008;4.752;2023-01-01T13:02:45;101468.09;;;14.62;60.25
46534;BME280;32260;52.008;4.752;2023-01-01T13:05:17;101460.91;;;14.66;60.22
46534;BME280;32260;52.008;4.752;2023-01-01T13:07:47;101461.66;;;14.71;60.19
46534;BME280;32260;52.008;4.752;2023-01-01T13:10:37;101468.59;;;14.78;60.30
46534;BME280;32260;52.008;4.752;2023-01-01T13:13:04;101468.03;;;14.64;60.56
46534;BME280;32260;52.008;4.752;2023-01-01T13:15:43;101473.97;;;14.75;60.35
46534;BME280;32260;52.008;4.752;2023-01-01T13:45:23;101459.66;;;14.79;61.17
46534;BME280;32260;52.008;4.752;2023-01-01T13:48:34;101465.91;;;14.78;61.19
46534;BME280;32260;52.008;4.752;2023-01-01T14:05:27;101448.94;;;14.81;61.58
46534;BME280;32260;52.008;4.752;2023-01-01T14:07:55;101441.00;;;14.79;61.64
46534;BME280;32260;52.008;4.752;2023-01-01T14:10:36;101456.03;;;14.82;61.64
46534;BME280;32260;52.008;4.752;2023-01-01T14:13:15;101451.66;;;14.79;61.67
46534;BME280;32260;52.008;4.752;2023-01-01T14:15:51;101445.38;;;14.80;61.99
46534;BME280;32260;52.008;4.752;2023-01-01T14:18:19;101450.06;;;14.72;61.99
46534;BME280;32260;52.008;4.752;2023-01-01T14:20:50;101442.06;;;14.72;62.04
46534;BME280;32260;52.008;4.752;2023-01-01T14:23:38;101445.38;;;14.82;61.79
46534;BME280;32260;52.008;4.752;2023-01-01T14:26:09;101442.88;;;14.74;62.08
46534;BME280;32260;52.008;4.752;2023-01-01T14:28:37;101441.34;;;14.67;62.26
46534;BME280;32260;52.008;4.752;2023-01-01T14:31:09;101444.00;;;14.65;62.35
46534;BME280;32260;52.008;4.752;2023-01-01T14:33:37;101455.63;;;14.63;62.36
46534;BME280;32260;52.008;4.752;2023-01-01T14:36:05;101450.25;;;14.66;62.24
46534;BME280;32260;52.008;4.752;2023-01-01T14:38:43;101454.69;;;14.65;62.49
46534;BME280;32260;52.008;4.752;2023-01-01T14:43:54;101452.28;;;14.54;62.71
46534;BME280;32260;52.008;4.752;2023-01-01T14:46:24;101445.22;;;14.53;62.73
46534;BME280;32260;52.008;4.752;2023-01-01T14:48:55;101443.44;;;14.52;62.57
46534;BME280;32260;52.008;4.752;2023-01-01T14:51:25;101435.63;;;14.46;62.68
46534;BME280;32260;52.008;4.752;2023-01-01T14:53:54;101440.91;;;14.48;62.61
46534;BME280;32260;52.008;4.752;2023-01-01T14:56:30;101433.06;;;14.43;62.61
46534;BME280;32260;52.008;4.752;2023-01-01T14:59:09;101439.06;;;14.50;62.60
46534;BME280;32260;52.008;4.752;2023-01-01T15:01:36;101439.28;;;14.42;62.59
46534;BME280;32260;52.008;4.752;2023-01-01T15:04:12;101434.00;;;14.40;62.60
46534;BME280;32260;52.008;4.752;2023-01-01T15:06:41;101428.75;;;14.37;62.80